Folegandros, Greece
Current Conditions -  °F | °C
As of 1:50 PM on Friday 31 Oct 2014 (Local Time) from LGSR Reporting Station
Scattered Clouds Scattered Clouds  
Wind Chill: 66°   Ceiling: Unl
Heat Index: 66°   Visibility: 6mi
Dew Point: 52°   Wind: 14mph
Humidity: 60%   Direction: 350°N
Pressure: 30"   Gusts: NA
Location:  36.65°N, 24.87°E
Report Text: LGSR 311050Z 35012KT 9999 FEW020 SCT180 19/11 Q1016
Loading
Personal Weather Stations






























Interactive Weather Map
Tropical Storm Tracking
New forecast layout! Learn more

10-Day Weather Forecast

Advertisements
Track Severe Weather on mobile